sensor_id;sensor_type;location;lat;lon;timestamp;pressure;altitude;pressure_sealevel;temperature;humidity
22872;BME280;11603;44.910;8.630;2023-04-12T00:09:43;100116.41;;;13.40;100.00
22872;BME280;11603;44.910;8.630;2023-04-12T00:25:29;100106.75;;;13.48;100.00
22872;BME280;11603;44.910;8.630;2023-04-12T00:28:38;100107.72;;;13.47;100.00
22872;BME280;11603;44.910;8.630;2023-04-12T00:50:46;100096.00;;;13.48;100.00
22872;BME280;11603;44.910;8.630;2023-04-12T00:53:37;100099.06;;;13.44;100.00
22872;BME280;11603;44.910;8.630;2023-04-12T01:00:16;100089.19;;;13.44;100.00
22872;BME280;11603;44.910;8.630;2023-04-12T01:35:53;100065.16;;;13.09;100.00
22872;BME280;11603;44.910;8.630;2023-04-12T02:11:31;100054.31;;;13.00;100.00
22872;BME280;11603;44.910;8.630;2023-04-12T02:14:46;100065.41;;;12.95;100.00
22872;BME280;11603;44.910;8.630;2023-04-12T02:27:52;100067.13;;;12.85;100.00
22872;BME280;11603;44.910;8.630;2023-04-12T02:41:30;100070.56;;;12.08;100.00
22872;BME280;11603;44.910;8.630;2023-04-12T02:48:17;100060.63;;;11.86;100.00
22872;BME280;11603;44.910;8.630;2023-04-12T02:51:50;100063.75;;;11.80;100.00
22872;BME280;11603;44.910;8.630;2023-04-12T02:58:32;100056.47;;;11.82;100.00
22872;BME280;11603;44.910;8.630;2023-04-12T03:01:18;100054.50;;;11.84;100.00
22872;BME280;11603;44.910;8.630;2023-04-12T03:05:10;100050.25;;;11.81;100.00
22872;BME280;11603;44.910;8.630;2023-04-12T03:18:36;100051.09;;;12.17;100.00
22872;BME280;11603;44.910;8.630;2023-04-12T03:28:42;100050.97;;;12.18;100.00
22872;BME280;11603;44.910;8.630;2023-04-12T03:31:30;100054.25;;;12.22;100.00
22872;BME280;11603;44.910;8.630;2023-04-12T03:34:30;100058.31;;;12.27;100.00
22872;BME280;11603;44.910;8.630;2023-04-12T04:02:52;100014.78;;;12.68;100.00
22872;BME280;11603;44.910;8.630;2023-04-12T04:05:20;100017.47;;;12.68;100.00
22872;BME280;11603;44.910;8.630;2023-04-12T04:11:52;100005.88;;;12.79;100.00
22872;BME280;11603;44.910;8.630;2023-04-12T04:14:29;100009.31;;;12.81;100.00
22872;BME280;11603;44.910;8.630;2023-04-12T04:17:24;100024.31;;;12.72;100.00
22872;BME280;11603;44.910;8.630;2023-04-12T04:45:16;100032.97;;;12.87;100.00
22872;BME280;11603;44.910;8.630;2023-04-12T04:51:44;100020.03;;;12.92;100.00
22872;BME280;11603;44.910;8.630;2023-04-12T04:57:52;100014.91;;;12.89;100.00
22872;BME280;11603;44.910;8.630;2023-04-12T05:07:38;100024.19;;;12.74;100.00
22872;BME280;11603;44.910;8.630;2023-04-12T05:10:54;100040.41;;;12.61;100.00
22872;BME280;11603;44.910;8.630;2023-04-12T05:22:00;100052.84;;;12.40;100.00
22872;BME280;11603;44.910;8.630;2023-04-12T05:49:56;100057.13;;;12.54;100.00
22872;BME280;11603;44.910;8.630;2023-04-12T05:53:10;100067.38;;;12.60;100.00
22872;BME280;11603;44.910;8.630;2023-04-12T05:55:37;100057.22;;;12.52;100.00
22872;BME280;11603;44.910;8.630;2023-04-12T05:58:06;100067.47;;;12.47;100.00
22872;BME280;11603;44.910;8.630;2023-04-12T06:00:35;100078.56;;;12.43;100.00
22872;BME280;11603;44.910;8.630;2023-04-12T06:03:40;100065.75;;;12.46;100.00
22872;BME280;11603;44.910;8.630;2023-04-12T06:06:19;100063.09;;;12.57;100.00
22872;BME280;11603;44.910;8.630;2023-04-12T06:08:48;100068.34;;;12.70;100.00
22872;BME280;11603;44.910;8.630;2023-04-12T06:11:58;100063.84;;;12.82;100.00
22872;BME280;11603;44.910;8.630;2023-04-12T06:14:24;100064.69;;;12.82;100.00
22872;BME280;11603;44.910;8.630;2023-04-12T06:16:50;100063.97;;;12.80;100.00
22872;BME280;11603;44.910;8.630;2023-04-12T06:19:17;100074.31;;;12.85;100.00
22872;BME280;11603;44.910;8.630;2023-04-12T06:21:43;100075.66;;;12.90;100.00
22872;BME280;11603;44.910;8.630;2023-04-12T06:26:57;100079.06;;;13.03;100.00
22872;BME280;11603;44.910;8.630;2023-04-12T06:29:23;100076.03;;;13.08;100.00
22872;BME280;11603;44.910;8.630;2023-04-12T06:32:25;100077.41;;;13.13;100.00
22872;BME280;11603;44.910;8.630;2023-04-12T06:35:37;100070.53;;;13.21;100.00
22872;BME280;11603;44.910;8.630;2023-04-12T06:38:03;100072.63;;;13.17;100.00
22872;BME280;11603;44.910;8.630;2023-04-12T06:40:31;100071.88;;;13.15;100.00
22872;BME280;11603;44.910;8.630;2023-04-12T06:43:28;100067.25;;;13.17;100.00
22872;BME280;11603;44.910;8.630;2023-04-12T06:46:35;100074.56;;;13.15;100.00
22872;BME280;11603;44.910;8.630;2023-04-12T06:49:40;100071.50;;;13.20;100.00
22872;BME280;11603;44.910;8.630;2023-04-12T06:52:52;100075.53;;;13.14;100.00
22872;BME280;11603;44.910;8.630;2023-04-12T06:56:14;100067.13;;;13.07;100.00
22872;BME280;11603;44.910;8.630;2023-04-12T06:58:46;100061.41;;;13.12;100.00
22872;BME280;11603;44.910;8.630;2023-04-12T07:01:38;100060.63;;;12.99;100.00
22872;BME280;11603;44.910;8.630;2023-04-12T07:04:03;100056.75;;;12.92;100.00
22872;BME280;11603;44.910;8.630;2023-04-12T07:07:07;100055.63;;;13.05;100.00
22872;BME280;11603;44.910;8.630;2023-04-12T07:09:32;100064.94;;;13.01;100.00
22872;BME280;11603;44.910;8.630;2023-04-12T07:12:30;100066.00;;;12.99;100.00
22872;BME280;11603;44.910;8.630;2023-04-12T07:14:56;100062.63;;;12.97;100.00
22872;BME280;11603;44.910;8.630;2023-04-12T07:17:46;100066.16;;;12.97;100.00
22872;BME280;11603;44.910;8.630;2023-04-12T07:21:06;100070.41;;;12.89;100.00
22872;BME280;11603;44.910;8.630;2023-04-12T07:23:44;100078.34;;;12.90;100.00
22872;BME280;11603;44.910;8.630;2023-04-12T07:26:11;100069.44;;;12.90;100.00
22872;BME280;11603;44.910;8.630;2023-04-12T07:28:37;100067.13;;;12.96;100.00
22872;BME280;11603;44.910;8.630;2023-04-12T07:31:09;100061.66;;;12.87;100.00
22872;BME280;11603;44.910;8.630;2023-04-12T07:33:36;100058.81;;;12.88;100.00
22872;BME280;11603;44.910;8.630;2023-04-12T07:36:12;100057.47;;;12.94;100.00
22872;BME280;11603;44.910;8.630;2023-04-12T07:41:27;100073.47;;;12.84;100.00
22872;BME280;11603;44.910;8.630;2023-04-12T07:43:54;100066.75;;;12.90;100.00
22872;BME280;11603;44.910;8.630;2023-04-12T07:46:26;100061.00;;;12.94;100.00
22872;BME280;11603;44.910;8.630;2023-04-12T07:49:10;100068.59;;;13.00;100.00
22872;BME280;11603;44.910;8.630;2023-04-12T07:51:59;100066.97;;;13.09;100.00
22872;BME280;11603;44.910;8.630;2023-04-12T07:54:33;100066.25;;;13.07;100.00
22872;BME280;11603;44.910;8.630;2023-04-12T07:57:09;100068.09;;;13.06;100.00
22872;BME280;11603;44.910;8.630;2023-04-12T07:59:35;100070.16;;;13.14;100.00
22872;BME280;11603;44.910;8.630;2023-04-12T08:02:16;100065.16;;;13.21;100.00
22872;BME280;11603;44.910;8.630;2023-04-12T08:04:57;100062.72;;;13.29;100.00
22872;BME280;11603;44.910;8.630;2023-04-12T08:07:28;100065.97;;;13.43;100.00
22872;BME280;11603;44.910;8.630;2023-04-12T08:09:53;100070.00;;;13.49;100.00
22872;BME280;11603;44.910;8.630;2023-04-12T08:12:19;100083.44;;;13.49;100.00
22872;BME280;11603;44.910;8.630;2023-04-12T08:14:45;100079.84;;;13.60;100.00
22872;BME280;11603;44.910;8.630;2023-04-12T08:27:51;100082.34;;;14.04;100.00
22872;BME280;11603;44.910;8.630;2023-04-12T08:33:03;100086.19;;;14.22;100.00
22872;BME280;11603;44.910;8.630;2023-04-12T08:35:28;100086.72;;;14.16;100.00
22872;BME280;11603;44.910;8.630;2023-04-12T08:45:42;100100.22;;;14.26;100.00
22872;BME280;11603;44.910;8.630;2023-04-12T08:48:10;100092.53;;;14.21;100.00
22872;BME280;11603;44.910;8.630;2023-04-12T08:50:36;100096.72;;;14.14;100.00
22872;BME280;11603;44.910;8.630;2023-04-12T08:53:30;100079.88;;;14.12;100.00
22872;BME280;11603;44.910;8.630;2023-04-12T08:56:34;100081.38;;;14.26;100.00
22872;BME280;11603;44.910;8.630;2023-04-12T08:59:07;100073.66;;;14.32;100.00
22872;BME280;11603;44.910;8.630;2023-04-12T09:08:22;100063.84;;;14.73;100.00
22872;BME280;11603;44.910;8.630;2023-04-12T09:17:36;100051.09;;;15.05;100.00
22872;BME280;11603;44.910;8.630;2023-04-12T09:28:43;100033.84;;;15.17;100.00
22872;BME280;11603;44.910;8.630;2023-04-12T09:31:14;100030.72;;;15.22;100.00
22872;BME280;11603;44.910;8.630;2023-04-12T09:33:41;100022.34;;;15.15;100.00
22872;BME280;11603;44.910;8.630;2023-04-12T09:36:23;100022.19;;;15.17;100.00
22872;BME280;11603;44.910;8.630;2023-04-12T09:39:02;100006.78;;;15.38;100.00
22872;BME280;11603;44.910;8.630;2023-04-12T09:41:29;100010.06;;;15.61;100.00
22872;BME280;11603;44.910;8.630;2023-04-12T09:44:01;100012.94;;;15.59;100.00
22872;BME280;11603;44.910;8.630;2023-04-12T09:46:28;100016.63;;;15.58;100.00
22872;BME280;11603;44.910;8.630;2023-04-12T09:48:55;100012.22;;;15.57;100.00
22872;BME280;11603;44.910;8.630;2023-04-12T09:51:28;100014.72;;;15.49;100.00
22872;BME280;11603;44.910;8.630;2023-04-12T09:54:00;100021.38;;;15.45;100.00
22872;BME280;11603;44.910;8.630;2023-04-12T09:56:31;100018.88;;;15.53;100.00
22872;BME280;11603;44.910;8.630;2023-04-12T09:59:04;100014.91;;;15.57;100.00
22872;BME280;11603;44.910;8.630;2023-04-12T10:01:39;100013.19;;;15.56;100.00
22872;BME280;11603;44.910;8.630;2023-04-12T10:04:06;100008.78;;;15.65;100.00
22872;BME280;11603;44.910;8.630;2023-04-12T10:06:40;100016.19;;;15.73;100.00
22872;BME280;11603;44.910;8.630;2023-04-12T10:09:11;100018.31;;;15.69;100.00
22872;BME280;11603;44.910;8.630;2023-04-12T10:11:38;100018.31;;;15.79;100.00
22872;BME280;11603;44.910;8.630;2023-04-12T10:14:06;100015.19;;;15.74;100.00
22872;BME280;11603;44.910;8.630;2023-04-12T10:16:33;100014.63;;;15.80;100.00
22872;BME280;11603;44.910;8.630;2023-04-12T10:19:02;100016.75;;;15.86;100.00
22872;BME280;11603;44.910;8.630;2023-04-12T10:21:28;100004.53;;;15.91;100.00
22872;BME280;11603;44.910;8.630;2023-04-12T10:23:54;99998.56;;;15.88;100.00
22872;BME280;11603;44.910;8.630;2023-04-12T10:26:27;100003.69;;;15.91;100.00
22872;BME280;11603;44.910;8.630;2023-04-12T10:29:31;99999.13;;;15.91;100.00
22872;BME280;11603;44.910;8.630;2023-04-12T10:32:25;99981.28;;;15.90;100.00
22872;BME280;11603;44.910;8.630;2023-04-12T10:34:57;99974.31;;;15.88;100.00
22872;BME280;11603;44.910;8.630;2023-04-12T10:48:03;99942.25;;;16.31;100.00
22872;BME280;11603;44.910;8.630;2023-04-12T10:50:32;99944.19;;;16.39;100.00
22872;BME280;11603;44.910;8.630;2023-04-12T10:55:43;99936.94;;;16.02;100.00
22872;BME280;11603;44.910;8.630;2023-04-12T11:01:16;99914.38;;;16.40;100.00
22872;BME280;11603;44.910;8.630;2023-04-12T11:04:20;99914.63;;;16.47;100.00
22872;BME280;11603;44.910;8.630;2023-04-12T11:07:21;99909.50;;;16.44;100.00
22872;BME280;11603;44.910;8.630;2023-04-12T11:09:56;99914.63;;;16.47;100.00
22872;BME280;11603;44.910;8.630;2023-04-12T11:12:39;99922.53;;;16.58;100.00
22872;BME280;11603;44.910;8.630;2023-04-12T11:15:14;99927.94;;;16.58;100.00
22872;BME280;11603;44.910;8.630;2023-04-12T11:17:55;99926.16;;;16.39;100.00
22872;BME280;11603;44.910;8.630;2023-04-12T11:20:21;99909.88;;;16.31;100.00
22872;BME280;11603;44.910;8.630;2023-04-12T11:22:47;99911.94;;;16.47;100.00
22872;BME280;11603;44.910;8.630;2023-04-12T11:25:24;99897.38;;;16.58;100.00
22872;BME280;11603;44.910;8.630;2023-04-12T11:27:51;99898.22;;;16.58;100.00
22872;BME280;11603;44.910;8.630;2023-04-12T11:30:19;99906.31;;;16.68;100.00
22872;BME280;11603;44.910;8.630;2023-04-12T11:32:47;99898.69;;;16.81;100.00
22872;BME280;11603;44.910;8.630;2023-04-12T11:35:14;99892.00;;;16.85;100.00
22872;BME280;11603;44.910;8.630;2023-04-12T11:37:41;99895.75;;;16.74;100.00
22872;BME280;11603;44.910;8.630;2023-04-12T11:40:13;99885.56;;;16.68;100.00
22872;BME280;11603;44.910;8.630;2023-04-12T11:42:39;99880.38;;;16.75;100.00
22872;BME280;11603;44.910;8.630;2023-04-12T11:45:05;99890.88;;;16.78;100.00
22872;BME280;11603;44.910;8.630;2023-04-12T11:48:15;99893.00;;;16.84;100.00
22872;BME280;11603;44.910;8.630;2023-04-12T11:50:41;99897.84;;;16.98;100.00
22872;BME280;11603;44.910;8.630;2023-04-12T11:53:12;99899.81;;;17.06;100.00
22872;BME280;11603;44.910;8.630;2023-04-12T11:55:41;99898.41;;;17.02;100.00
22872;BME280;11603;44.910;8.630;2023-04-12T11:58:11;99890.13;;;17.03;100.00
22872;BME280;11603;44.910;8.630;2023-04-12T12:00:37;99891.38;;;17.09;100.00
22872;BME280;11603;44.910;8.630;2023-04-12T12:03:08;99883.06;;;17.20;100.00
22872;BME280;11603;44.910;8.630;2023-04-12T12:05:38;99883.34;;;17.34;100.00
22872;BME280;11603;44.910;8.630;2023-04-12T12:08:06;99881.03;;;17.40;100.00
22872;BME280;11603;44.910;8.630;2023-04-12T12:10:38;99881.63;;;17.33;100.00
22872;BME280;11603;44.910;8.630;2023-04-12T12:13:11;99880.03;;;17.41;100.00
22872;BME280;11603;44.910;8.630;2023-04-12T12:19:15;99866.34;;;17.60;100.00
22872;BME280;11603;44.910;8.630;2023-04-12T12:21:49;99874.28;;;17.79;100.00
22872;BME280;11603;44.910;8.630;2023-04-12T12:24:16;99872.19;;;17.99;100.00
22872;BME280;11603;44.910;8.630;2023-04-12T12:26:42;99874.06;;;18.06;100.00
22872;BME280;11603;44.910;8.630;2023-04-12T12:29:16;99862.97;;;18.17;100.00
22872;BME280;11603;44.910;8.630;2023-04-12T12:31:45;99852.75;;;18.37;100.00
22872;BME280;11603;44.910;8.630;2023-04-12T12:34:20;99847.66;;;18.26;100.00
22872;BME280;11603;44.910;8.630;2023-04-12T12:37:25;99840.28;;;18.10;100.00
22872;BME280;11603;44.910;8.630;2023-04-12T12:40:50;99847.81;;;18.33;100.00
22872;BME280;11603;44.910;8.630;2023-04-12T12:43:18;99838.81;;;18.16;100.00
22872;BME280;11603;44.910;8.630;2023-04-12T12:45:47;99839.22;;;18.03;100.00
22872;BME280;11603;44.910;8.630;2023-04-12T12:48:12;99839.09;;;17.79;100.00
22872;BME280;11603;44.910;8.630;2023-04-12T12:50:38;99833.47;;;17.72;100.00
22872;BME280;11603;44.910;8.630;2023-04-12T12:53:04;99848.00;;;17.71;100.00
22872;BME280;11603;44.910;8.630;2023-04-12T12:55:31;99843.22;;;17.65;100.00
22872;BME280;11603;44.910;8.630;2023-04-12T12:58:16;99842.06;;;17.68;100.00
22872;BME280;11603;44.910;8.630;2023-04-12T13:00:46;99835.25;;;17.64;100.00
22872;BME280;11603;44.910;8.630;2023-04-12T13:03:12;99838.03;;;17.54;100.00
22872;BME280;11603;44.910;8.630;2023-04-12T13:05:40;99837.28;;;17.44;100.00
22872;BME280;11603;44.910;8.630;2023-04-12T13:08:05;99829.34;;;17.43;100.00
22872;BME280;11603;44.910;8.630;2023-04-12T13:10:31;99823.78;;;17.44;100.00
22872;BME280;11603;44.910;8.630;2023-04-12T13:12:57;99810.63;;;17.49;100.00
22872;BME280;11603;44.910;8.630;2023-04-12T13:15:24;99814.03;;;17.51;100.00
22872;BME280;11603;44.910;8.630;2023-04-12T13:17:53;99814.88;;;17.52;100.00
22872;BME280;11603;44.910;8.630;2023-04-12T13:20:19;99812.19;;;17.52;100.00
22872;BME280;11603;44.910;8.630;2023-04-12T13:22:44;99809.09;;;17.47;100.00
22872;BME280;11603;44.910;8.630;2023-04-12T13:25:13;99816.97;;;17.40;100.00
22872;BME280;11603;44.910;8.630;2023-04-12T13:27:38;99812.91;;;17.36;100.00
22872;BME280;11603;44.910;8.630;2023-04-12T13:30:13;99808.28;;;17.28;100.00
22872;BME280;11603;44.910;8.630;2023-04-12T13:32:38;99809.38;;;17.18;100.00
22872;BME280;11603;44.910;8.630;2023-04-12T13:35:04;99798.03;;;17.14;100.00
22872;BME280;11603;44.910;8.630;2023-04-12T13:37:39;99787.59;;;17.19;100.00
22872;BME280;11603;44.910;8.630;2023-04-12T13:40:04;99787.59;;;17.19;100.00
22872;BME280;11603;44.910;8.630;2023-04-12T13:42:30;99792.47;;;17.16;100.00
22872;BME280;11603;44.910;8.630;2023-04-12T13:44:56;99784.16;;;17.09;100.00
22872;BME280;11603;44.910;8.630;2023-04-12T13:47:25;99771.25;;;17.03;100.00
22872;BME280;11603;44.910;8.630;2023-04-12T13:49:54;99774.97;;;17.02;100.00
22872;BME280;11603;44.910;8.630;2023-04-12T13:52:19;99776.91;;;16.92;100.00
22872;BME280;11603;44.910;8.630;2023-04-12T13:54:55;99775.75;;;16.94;100.00
22872;BME280;11603;44.910;8.630;2023-04-12T13:57:21;99769.41;;;17.04;100.00
22872;BME280;11603;44.910;8.630;2023-04-12T13:59:47;99751.72;;;17.09;100.00
22872;BME280;11603;44.910;8.630;2023-04-12T14:02:15;99756.41;;;17.07;100.00
22872;BME280;11603;44.910;8.630;2023-04-12T14:04:51;99757.34;;;17.16;100.00
22872;BME280;11603;44.910;8.630;2023-04-12T14:07:20;99759.69;;;17.11;100.00
22872;BME280;11603;44.910;8.630;2023-04-12T14:09:45;99741.50;;;17.21;100.00
22872;BME280;11603;44.910;8.630;2023-04-12T14:12:13;99745.06;;;17.21;100.00
22872;BME280;11603;44.910;8.630;2023-04-12T14:14:39;99743.03;;;17.23;100.00
22872;BME280;11603;44.910;8.630;2023-04-12T14:17:04;99747.75;;;17.21;100.00
22872;BME280;11603;44.910;8.630;2023-04-12T14:19:30;99734.56;;;17.18;100.00
22872;BME280;11603;44.910;8.630;2023-04-12T14:21:55;99726.06;;;17.13;100.00
22872;BME280;11603;44.910;8.630;2023-04-12T14:24:21;99732.69;;;17.19;100.00
22872;BME280;11603;44.910;8.630;2023-04-12T14:26:47;99730.00;;;17.19;100.00
22872;BME280;11603;44.910;8.630;2023-04-12T14:29:15;99721.41;;;17.23;100.00
22872;BME280;11603;44.910;8.630;2023-04-12T14:31:41;99722.78;;;17.27;100.00
22872;BME280;11603;44.910;8.630;2023-04-12T14:34:07;99718.06;;;17.29;100.00
22872;BME280;11603;44.910;8.630;2023-04-12T14:36:33;99727.75;;;17.32;100.00
22872;BME280;11603;44.910;8.630;2023-04-12T14:38:59;99728.16;;;17.19;100.00
22872;BME280;11603;44.910;8.630;2023-04-12T14:41:30;99730.22;;;17.25;100.00
22872;BME280;11603;44.910;8.630;2023-04-12T14:43:57;99725.19;;;17.30;100.00
22872;BME280;11603;44.910;8.630;2023-04-12T14:46:22;99715.38;;;17.29;100.00
22872;BME280;11603;44.910;8.630;2023-04-12T14:48:49;99712.88;;;17.36;100.00
22872;BME280;11603;44.910;8.630;2023-04-12T14:51:17;99714.25;;;17.40;100.00
22872;BME280;11603;44.910;8.630;2023-04-12T14:53:47;99719.78;;;17.30;100.00
22872;BME280;11603;44.910;8.630;2023-04-12T14:56:23;99715.84;;;17.25;100.00
22872;BME280;11603;44.910;8.630;2023-04-12T14:58:54;99708.22;;;17.20;100.00
22872;BME280;11603;44.910;8.630;2023-04-12T15:01:23;99712.41;;;17.15;100.00
22872;BME280;11603;44.910;8.630;2023-04-12T15:03:52;99713.56;;;17.12;100.00
22872;BME280;11603;44.910;8.630;2023-04-12T15:06:38;99699.06;;;17.13;100.00
22872;BME280;11603;44.910;8.630;2023-04-12T15:09:07;99699.06;;;17.13;100.00
22872;BME280;11603;44.910;8.630;2023-04-12T15:11:43;99690.09;;;17.13;100.00
22872;BME280;11603;44.910;8.630;2023-04-12T15:15:16;99681.75;;;17.06;100.00
22872;BME280;11603;44.910;8.630;2023-04-12T15:20:37;99673.94;;;16.95;100.00
22872;BME280;11603;44.910;8.630;2023-04-12T15:23:03;99674.63;;;16.97;100.00
22872;BME280;11603;44.910;8.630;2023-04-12T15:25:37;99671.91;;;16.97;100.00
22872;BME280;11603;44.910;8.630;2023-04-12T15:28:03;99672.25;;;16.94;100.00
22872;BME280;11603;44.910;8.630;2023-04-12T15:30:29;99672.72;;;16.89;100.00
22872;BME280;11603;44.910;8.630;2023-04-12T15:32:58;99665.84;;;16.95;100.00
22872;BME280;11603;44.910;8.630;2023-04-12T15:35:27;99669.59;;;17.02;100.00
22872;BME280;11603;44.910;8.630;2023-04-12T15:37:58;99672.00;;;17.05;100.00
22872;BME280;11603;44.910;8.630;2023-04-12T15:40:24;99669.78;;;17.01;100.00
22872;BME280;11603;44.910;8.630;2023-04-12T15:42:50;99671.63;;;17.00;100.00
22872;BME280;11603;44.910;8.630;2023-04-12T15:45:39;99667.88;;;17.01;100.00
22872;BME280;11603;44.910;8.630;2023-04-12T15:48:45;99672.47;;;17.01;100.00
22872;BME280;11603;44.910;8.630;2023-04-12T15:51:12;99675.63;;;16.96;100.00
22872;BME280;11603;44.910;8.630;2023-04-12T15:53:49;99673.09;;;16.94;100.00
22872;BME280;11603;44.910;8.630;2023-04-12T16:22:39;99669.44;;;16.78;100.00
22872;BME280;11603;44.910;8.630;2023-04-12T16:31:33;99662.31;;;16.77;100.00
22872;BME280;11603;44.910;8.630;2023-04-12T16:37:49;99657.72;;;16.69;100.00
22872;BME280;11603;44.910;8.630;2023-04-12T16:44:38;99648.44;;;16.54;100.00
22872;BME280;11603;44.910;8.630;2023-04-12T16:54:45;99631.63;;;16.60;100.00
22872;BME280;11603;44.910;8.630;2023-04-12T16:59:49;99631.03;;;16.48;100.00
22872;BME280;11603;44.910;8.630;2023-04-12T17:05:47;99632.03;;;16.47;100.00
22872;BME280;11603;44.910;8.630;2023-04-12T17:08:20;99641.13;;;16.46;100.00
22872;BME280;11603;44.910;8.630;2023-04-12T17:10:49;99634.66;;;16.39;100.00
22872;BME280;11603;44.910;8.630;2023-04-12T17:13:47;99634.13;;;16.36;100.00
22872;BME280;11603;44.910;8.630;2023-04-12T17:16:20;99632.03;;;16.30;100.00
22872;BME280;11603;44.910;8.630;2023-04-12T17:30:57;99619.22;;;15.96;100.00
22872;BME280;11603;44.910;8.630;2023-04-12T17:40:30;99573.53;;;15.77;100.00
22872;BME280;11603;44.910;8.630;2023-04-12T17:46:30;99602.56;;;15.65;100.00
22872;BME280;11603;44.910;8.630;2023-04-12T17:52:38;99625.03;;;15.56;100.00
22872;BME280;11603;44.910;8.630;2023-04-12T17:55:07;99624.91;;;15.58;100.00
22872;BME280;11603;44.910;8.630;2023-04-12T17:57:44;99625.19;;;15.55;100.00
22872;BME280;11603;44.910;8.630;2023-04-12T18:00:16;99619.78;;;15.55;100.00
22872;BME280;11603;44.910;8.630;2023-04-12T18:03:11;99625.59;;;15.50;100.00
22872;BME280;11603;44.910;8.630;2023-04-12T18:09:24;99613.97;;;15.50;100.00
22872;BME280;11603;44.910;8.630;2023-04-12T18:11:53;99626.03;;;15.55;100.00
22872;BME280;11603;44.910;8.630;2023-04-12T18:14:26;99618.97;;;15.54;100.00
22872;BME280;11603;44.910;8.630;2023-04-12T18:16:53;99612.28;;;15.49;100.00
22872;BME280;11603;44.910;8.630;2023-04-12T18:22:47;99601.47;;;15.58;100.00
22872;BME280;11603;44.910;8.630;2023-04-12T18:25:12;99592.47;;;15.67;100.00
22872;BME280;11603;44.910;8.630;2023-04-12T18:27:38;99584.94;;;15.71;100.00
22872;BME280;11603;44.910;8.630;2023-04-12T18:30:13;99591.72;;;15.75;100.00
22872;BME280;11603;44.910;8.630;2023-04-12T18:32:40;99590.72;;;15.76;100.00
22872;BME280;11603;44.910;8.630;2023-04-12T18:38:07;99588.88;;;15.77;100.00
22872;BME280;11603;44.910;8.630;2023-04-12T18:40:38;99585.16;;;15.78;100.00
22872;BME280;11603;44.910;8.630;2023-04-12T18:43:04;99595.34;;;15.84;100.00
22872;BME280;11603;44.910;8.630;2023-04-12T18:45:57;99606.41;;;15.81;100.00
22872;BME280;11603;44.910;8.630;2023-04-12T18:48:23;99600.50;;;15.77;100.00
22872;BME280;11603;44.910;8.630;2023-04-12T18:51:00;99591.56;;;15.77;100.00
22872;BME280;11603;44.910;8.630;2023-04-12T18:53:25;99582.16;;;15.81;100.00
22872;BME280;11603;44.910;8.630;2023-04-12T18:56:09;99577.09;;;15.78;100.00
22872;BME280;11603;44.910;8.630;2023-04-12T18:58:39;99586.63;;;15.72;100.00
22872;BME280;11603;44.910;8.630;2023-04-12T19:01:06;99585.00;;;15.61;100.00
22872;BME280;11603;44.910;8.630;2023-04-12T19:03:33;99578.06;;;15.59;100.00
22872;BME280;11603;44.910;8.630;2023-04-12T19:05:59;99575.53;;;15.57;100.00
22872;BME280;11603;44.910;8.630;2023-04-12T19:08:27;99568.28;;;15.58;100.00
22872;BME280;11603;44.910;8.630;2023-04-12T19:10:54;99574.34;;;15.60;100.00
22872;BME280;11603;44.910;8.630;2023-04-12T19:13:20;99563.97;;;15.65;100.00
22872;BME280;11603;44.910;8.630;2023-04-12T19:15:46;99562.13;;;15.65;100.00
22872;BME280;11603;44.910;8.630;2023-04-12T19:18:12;99559.75;;;15.62;100.00
22872;BME280;11603;44.910;8.630;2023-04-12T19:20:37;99555.34;;;15.61;100.00
22872;BME280;11603;44.910;8.630;2023-04-12T19:23:03;99554.66;;;15.59;100.00
22872;BME280;11603;44.910;8.630;2023-04-12T19:25:29;99560.06;;;15.59;100.00
22872;BME280;11603;44.910;8.630;2023-04-12T19:27:57;99558.19;;;15.60;100.00
22872;BME280;11603;44.910;8.630;2023-04-12T19:30:23;99561.50;;;15.54;100.00
22872;BME280;11603;44.910;8.630;2023-04-12T19:32:49;99564.03;;;15.55;100.00
22872;BME280;11603;44.910;8.630;2023-04-12T19:35:14;99557.25;;;15.51;100.00
22872;BME280;11603;44.910;8.630;2023-04-12T19:37:40;99552.44;;;15.45;100.00
22872;BME280;11603;44.910;8.630;2023-04-12T19:40:07;99553.59;;;15.43;100.00
22872;BME280;11603;44.910;8.630;2023-04-12T19:42:33;99548.09;;;15.35;100.00
22872;BME280;11603;44.910;8.630;2023-04-12T19:44:58;99544.03;;;15.31;100.00
22872;BME280;11603;44.910;8.630;2023-04-12T19:47:27;99540.09;;;15.25;100.00
22872;BME280;11603;44.910;8.630;2023-04-12T19:49:53;99545.34;;;15.26;100.00
22872;BME280;11603;44.910;8.630;2023-04-12T19:52:20;99569.00;;;15.23;100.00
22872;BME280;11603;44.910;8.630;2023-04-12T19:54:46;99569.91;;;15.14;100.00
22872;BME280;11603;44.910;8.630;2023-04-12T19:57:11;99555.75;;;15.12;100.00
22872;BME280;11603;44.910;8.630;2023-04-12T19:59:42;99553.06;;;15.12;100.00
22872;BME280;11603;44.910;8.630;2023-04-12T20:02:07;99556.75;;;15.11;100.00
22872;BME280;11603;44.910;8.630;2023-04-12T20:04:33;99559.06;;;15.06;100.00
22872;BME280;11603;44.910;8.630;2023-04-12T20:06:58;99560.91;;;15.05;100.00
22872;BME280;11603;44.910;8.630;2023-04-12T20:09:27;99562.19;;;15.01;100.00
22872;BME280;11603;44.910;8.630;2023-04-12T20:11:58;99558.25;;;14.96;100.00
22872;BME280;11603;44.910;8.630;2023-04-12T20:14:25;99547.03;;;15.00;100.00
22872;BME280;11603;44.910;8.630;2023-04-12T20:16:51;99551.88;;;14.97;100.00
22872;BME280;11603;44.910;8.630;2023-04-12T20:19:20;99546.91;;;14.92;100.00
22872;BME280;11603;44.910;8.630;2023-04-12T20:21:48;99548.91;;;14.90;100.00
22872;BME280;11603;44.910;8.630;2023-04-12T20:24:14;99540.25;;;14.87;100.00
22872;BME280;11603;44.910;8.630;2023-04-12T20:26:41;99531.09;;;14.79;100.00